sensor_id;sensor_type;location;lat;lon;timestamp;P1;durP1;ratioP1;P2;durP2;ratioP2
25391;SDS011;13329;48.402;11.718;2023-03-22T00:01:24;7.07;;;3.08;;
25391;SDS011;13329;48.402;11.718;2023-03-22T00:03:52;4.68;;;2.38;;
25391;SDS011;13329;48.402;11.718;2023-03-22T00:06:17;5.20;;;2.50;;
25391;SDS011;13329;48.402;11.718;2023-03-22T00:08:43;4.60;;;2.05;;
25391;SDS011;13329;48.402;11.718;2023-03-22T00:11:09;3.92;;;2.25;;
25391;SDS011;13329;48.402;11.718;2023-03-22T00:13:35;6.30;;;3.25;;
25391;SDS011;13329;48.402;11.718;2023-03-22T00:16:01;3.67;;;1.95;;
25391;SDS011;13329;48.402;11.718;2023-03-22T00:18:27;9.48;;;2.70;;
25391;SDS011;13329;48.402;11.718;2023-03-22T00:20:53;5.88;;;3.20;;
25391;SDS011;13329;48.402;11.718;2023-03-22T00:23:18;5.30;;;3.13;;
25391;SDS011;13329;48.402;11.718;2023-03-22T00:25:44;8.07;;;3.88;;
25391;SDS011;13329;48.402;11.718;2023-03-22T00:28:09;8.57;;;4.35;;
25391;SDS011;13329;48.402;11.718;2023-03-22T00:30:35;6.60;;;4.20;;
25391;SDS011;13329;48.402;11.718;2023-03-22T00:33:00;6.77;;;3.50;;
25391;SDS011;13329;48.402;11.718;2023-03-22T00:35:25;9.45;;;3.65;;
25391;SDS011;13329;48.402;11.718;2023-03-22T00:37:50;7.93;;;3.93;;
25391;SDS011;13329;48.402;11.718;2023-03-22T00:40:15;6.27;;;3.23;;
25391;SDS011;13329;48.402;11.718;2023-03-22T00:42:41;7.18;;;4.15;;
25391;SDS011;13329;48.402;11.718;2023-03-22T00:45:07;7.23;;;3.80;;
25391;SDS011;13329;48.402;11.718;2023-03-22T00:47:32;8.63;;;4.22;;
25391;SDS011;13329;48.402;11.718;2023-03-22T00:49:58;7.25;;;4.03;;
25391;SDS011;13329;48.402;11.718;2023-03-22T00:52:23;4.63;;;3.13;;
25391;SDS011;13329;48.402;11.718;2023-03-22T00:54:48;5.30;;;2.67;;
25391;SDS011;13329;48.402;11.718;2023-03-22T00:57:13;5.18;;;2.42;;
25391;SDS011;13329;48.402;11.718;2023-03-22T00:59:39;5.27;;;3.03;;
25391;SDS011;13329;48.402;11.718;2023-03-22T01:02:05;4.63;;;2.70;;
25391;SDS011;13329;48.402;11.718;2023-03-22T01:04:30;7.45;;;2.90;;
25391;SDS011;13329;48.402;11.718;2023-03-22T01:06:56;5.15;;;3.28;;
25391;SDS011;13329;48.402;11.718;2023-03-22T01:09:25;5.45;;;3.13;;
25391;SDS011;13329;48.402;11.718;2023-03-22T01:11:53;5.47;;;3.55;;
25391;SDS011;13329;48.402;11.718;2023-03-22T01:14:18;7.80;;;3.42;;
25391;SDS011;13329;48.402;11.718;2023-03-22T01:16:43;6.33;;;3.30;;
25391;SDS011;13329;48.402;11.718;2023-03-22T01:19:08;4.47;;;2.93;;
25391;SDS011;13329;48.402;11.718;2023-03-22T01:21:33;4.60;;;3.07;;
25391;SDS011;13329;48.402;11.718;2023-03-22T01:23:59;6.40;;;3.27;;
25391;SDS011;13329;48.402;11.718;2023-03-22T01:26:24;7.63;;;4.20;;
25391;SDS011;13329;48.402;11.718;2023-03-22T01:28:49;7.20;;;3.97;;
25391;SDS011;13329;48.402;11.718;2023-03-22T01:31:14;8.93;;;4.27;;
25391;SDS011;13329;48.402;11.718;2023-03-22T01:33:39;12.20;;;4.55;;
25391;SDS011;13329;48.402;11.718;2023-03-22T01:36:05;8.55;;;4.55;;
25391;SDS011;13329;48.402;11.718;2023-03-22T01:38:30;12.18;;;5.00;;
25391;SDS011;13329;48.402;11.718;2023-03-22T01:40:55;8.63;;;4.63;;
25391;SDS011;13329;48.402;11.718;2023-03-22T01:43:21;7.78;;;4.63;;
25391;SDS011;13329;48.402;11.718;2023-03-22T01:45:49;8.17;;;4.63;;
25391;SDS011;13329;48.402;11.718;2023-03-22T01:50:41;7.20;;;4.00;;
25391;SDS011;13329;48.402;11.718;2023-03-22T01:53:09;9.23;;;4.90;;
25391;SDS011;13329;48.402;11.718;2023-03-22T01:55:35;10.00;;;4.63;;
25391;SDS011;13329;48.402;11.718;2023-03-22T01:58:01;10.48;;;4.40;;
25391;SDS011;13329;48.402;11.718;2023-03-22T02:00:27;8.82;;;3.30;;
25391;SDS011;13329;48.402;11.718;2023-03-22T02:02:53;5.35;;;3.40;;
25391;SDS011;13329;48.402;11.718;2023-03-22T02:05:18;7.70;;;3.73;;
25391;SDS011;13329;48.402;11.718;2023-03-22T02:07:46;11.10;;;4.07;;
25391;SDS011;13329;48.402;11.718;2023-03-22T02:10:12;8.35;;;4.25;;
25391;SDS011;13329;48.402;11.718;2023-03-22T02:15:32;6.68;;;4.43;;
25391;SDS011;13329;48.402;11.718;2023-03-22T02:20:57;7.45;;;4.35;;
25391;SDS011;13329;48.402;11.718;2023-03-22T02:26:19;7.38;;;4.53;;
25391;SDS011;13329;48.402;11.718;2023-03-22T02:34:07;10.27;;;5.47;;
25391;SDS011;13329;48.402;11.718;2023-03-22T02:36:53;10.80;;;5.82;;
25391;SDS011;13329;48.402;11.718;2023-03-22T02:42:13;9.25;;;5.10;;
25391;SDS011;13329;48.402;11.718;2023-03-22T02:44:45;7.20;;;4.50;;
25391;SDS011;13329;48.402;11.718;2023-03-22T02:47:20;10.05;;;5.15;;
25391;SDS011;13329;48.402;11.718;2023-03-22T02:49:51;11.13;;;4.88;;
25391;SDS011;13329;48.402;11.718;2023-03-22T02:52:24;7.30;;;4.10;;
25391;SDS011;13329;48.402;11.718;2023-03-22T02:54:51;8.80;;;5.03;;
25391;SDS011;13329;48.402;11.718;2023-03-22T02:57:24;10.63;;;5.07;;
25391;SDS011;13329;48.402;11.718;2023-03-22T02:59:51;10.13;;;4.97;;
25391;SDS011;13329;48.402;11.718;2023-03-22T03:02:17;8.88;;;5.30;;
25391;SDS011;13329;48.402;11.718;2023-03-22T03:04:45;7.57;;;4.90;;
25391;SDS011;13329;48.402;11.718;2023-03-22T03:09:47;11.70;;;4.80;;
25391;SDS011;13329;48.402;11.718;2023-03-22T03:12:13;10.18;;;5.68;;
25391;SDS011;13329;48.402;11.718;2023-03-22T03:14:42;10.90;;;5.63;;
25391;SDS011;13329;48.402;11.718;2023-03-22T03:19:44;9.50;;;5.10;;
25391;SDS011;13329;48.402;11.718;2023-03-22T03:27:06;8.48;;;5.03;;
25391;SDS011;13329;48.402;11.718;2023-03-22T03:32:28;10.02;;;5.50;;
25391;SDS011;13329;48.402;11.718;2023-03-22T03:35:16;7.43;;;4.43;;
25391;SDS011;13329;48.402;11.718;2023-03-22T03:37:53;8.35;;;4.82;;
25391;SDS011;13329;48.402;11.718;2023-03-22T03:40:34;11.10;;;4.90;;
25391;SDS011;13329;48.402;11.718;2023-03-22T03:43:02;8.05;;;4.55;;
25391;SDS011;13329;48.402;11.718;2023-03-22T03:45:27;8.70;;;4.63;;
25391;SDS011;13329;48.402;11.718;2023-03-22T03:47:54;9.60;;;5.65;;
25391;SDS011;13329;48.402;11.718;2023-03-22T03:50:21;10.00;;;5.78;;
25391;SDS011;13329;48.402;11.718;2023-03-22T03:52:47;9.38;;;5.50;;
25391;SDS011;13329;48.402;11.718;2023-03-22T03:55:12;9.30;;;5.13;;
25391;SDS011;13329;48.402;11.718;2023-03-22T03:57:37;10.80;;;5.60;;
25391;SDS011;13329;48.402;11.718;2023-03-22T04:00:03;10.00;;;5.43;;
25391;SDS011;13329;48.402;11.718;2023-03-22T04:02:28;11.10;;;5.50;;
25391;SDS011;13329;48.402;11.718;2023-03-22T04:04:53;11.55;;;5.32;;
25391;SDS011;13329;48.402;11.718;2023-03-22T04:07:18;9.63;;;5.57;;
25391;SDS011;13329;48.402;11.718;2023-03-22T04:09:44;10.35;;;5.15;;
25391;SDS011;13329;48.402;11.718;2023-03-22T04:12:09;23.85;;;8.65;;
25391;SDS011;13329;48.402;11.718;2023-03-22T04:14:34;14.33;;;5.87;;
25391;SDS011;13329;48.402;11.718;2023-03-22T04:17:00;9.60;;;4.68;;
25391;SDS011;13329;48.402;11.718;2023-03-22T04:19:25;12.13;;;5.38;;
25391;SDS011;13329;48.402;11.718;2023-03-22T04:21:50;7.83;;;4.93;;
25391;SDS011;13329;48.402;11.718;2023-03-22T04:24:17;8.85;;;5.25;;
25391;SDS011;13329;48.402;11.718;2023-03-22T04:26:42;8.98;;;4.95;;
25391;SDS011;13329;48.402;11.718;2023-03-22T04:29:07;8.13;;;4.90;;
25391;SDS011;13329;48.402;11.718;2023-03-22T04:31:33;9.07;;;5.25;;
25391;SDS011;13329;48.402;11.718;2023-03-22T04:34:00;10.18;;;5.75;;
25391;SDS011;13329;48.402;11.718;2023-03-22T04:36:30;10.60;;;5.47;;
25391;SDS011;13329;48.402;11.718;2023-03-22T04:39:00;11.02;;;5.72;;
25391;SDS011;13329;48.402;11.718;2023-03-22T04:41:25;8.52;;;4.80;;
25391;SDS011;13329;48.402;11.718;2023-03-22T04:43:50;11.75;;;5.00;;
25391;SDS011;13329;48.402;11.718;2023-03-22T04:46:16;8.55;;;5.25;;
25391;SDS011;13329;48.402;11.718;2023-03-22T04:48:42;7.57;;;5.07;;
25391;SDS011;13329;48.402;11.718;2023-03-22T04:51:08;8.85;;;4.75;;
25391;SDS011;13329;48.402;11.718;2023-03-22T04:53:33;9.38;;;5.07;;
25391;SDS011;13329;48.402;11.718;2023-03-22T04:56:02;8.00;;;4.40;;
25391;SDS011;13329;48.402;11.718;2023-03-22T04:58:29;8.93;;;4.80;;
25391;SDS011;13329;48.402;11.718;2023-03-22T05:00:54;9.50;;;5.03;;
25391;SDS011;13329;48.402;11.718;2023-03-22T05:03:19;7.57;;;4.17;;
25391;SDS011;13329;48.402;11.718;2023-03-22T05:06:04;11.55;;;5.05;;
25391;SDS011;13329;48.402;11.718;2023-03-22T05:08:30;9.05;;;4.90;;
25391;SDS011;13329;48.402;11.718;2023-03-22T05:10:56;7.72;;;4.43;;
25391;SDS011;13329;48.402;11.718;2023-03-22T05:13:23;10.10;;;4.15;;
25391;SDS011;13329;48.402;11.718;2023-03-22T05:15:48;7.05;;;4.28;;
25391;SDS011;13329;48.402;11.718;2023-03-22T05:18:14;9.73;;;4.35;;
25391;SDS011;13329;48.402;11.718;2023-03-22T05:20:40;9.00;;;4.72;;
25391;SDS011;13329;48.402;11.718;2023-03-22T05:23:05;8.50;;;4.25;;
25391;SDS011;13329;48.402;11.718;2023-03-22T05:25:30;11.75;;;4.63;;
25391;SDS011;13329;48.402;11.718;2023-03-22T05:27:56;9.02;;;4.35;;
25391;SDS011;13329;48.402;11.718;2023-03-22T05:30:29;10.48;;;5.00;;
25391;SDS011;13329;48.402;11.718;2023-03-22T05:33:01;10.50;;;5.43;;
25391;SDS011;13329;48.402;11.718;2023-03-22T05:35:30;13.75;;;4.78;;
25391;SDS011;13329;48.402;11.718;2023-03-22T05:37:55;10.73;;;5.20;;
25391;SDS011;13329;48.402;11.718;2023-03-22T05:40:21;8.52;;;4.97;;
25391;SDS011;13329;48.402;11.718;2023-03-22T05:42:46;10.45;;;4.97;;
25391;SDS011;13329;48.402;11.718;2023-03-22T05:45:11;11.20;;;5.27;;
25391;SDS011;13329;48.402;11.718;2023-03-22T05:47:36;11.00;;;4.67;;
25391;SDS011;13329;48.402;11.718;2023-03-22T05:50:03;8.15;;;4.55;;
25391;SDS011;13329;48.402;11.718;2023-03-22T05:52:29;7.60;;;4.80;;
25391;SDS011;13329;48.402;11.718;2023-03-22T05:54:54;10.97;;;4.83;;
25391;SDS011;13329;48.402;11.718;2023-03-22T05:57:19;9.32;;;4.90;;
25391;SDS011;13329;48.402;11.718;2023-03-22T05:59:45;11.43;;;5.30;;
25391;SDS011;13329;48.402;11.718;2023-03-22T06:02:10;7.78;;;4.72;;
25391;SDS011;13329;48.402;11.718;2023-03-22T06:04:35;9.93;;;5.03;;
25391;SDS011;13329;48.402;11.718;2023-03-22T06:07:00;8.67;;;4.57;;
25391;SDS011;13329;48.402;11.718;2023-03-22T06:09:25;12.93;;;4.80;;
25391;SDS011;13329;48.402;11.718;2023-03-22T06:11:51;9.03;;;4.90;;
25391;SDS011;13329;48.402;11.718;2023-03-22T06:14:16;8.13;;;4.20;;
25391;SDS011;13329;48.402;11.718;2023-03-22T06:16:41;11.50;;;4.50;;
25391;SDS011;13329;48.402;11.718;2023-03-22T06:19:06;11.60;;;5.00;;
25391;SDS011;13329;48.402;11.718;2023-03-22T06:21:31;7.10;;;4.67;;
25391;SDS011;13329;48.402;11.718;2023-03-22T06:23:57;9.43;;;5.17;;
25391;SDS011;13329;48.402;11.718;2023-03-22T06:26:22;9.80;;;4.90;;
25391;SDS011;13329;48.402;11.718;2023-03-22T06:28:47;12.43;;;5.23;;
25391;SDS011;13329;48.402;11.718;2023-03-22T06:31:12;8.03;;;4.37;;
25391;SDS011;13329;48.402;11.718;2023-03-22T06:33:37;9.27;;;4.53;;
25391;SDS011;13329;48.402;11.718;2023-03-22T06:36:02;7.63;;;4.30;;
25391;SDS011;13329;48.402;11.718;2023-03-22T06:38:28;8.27;;;4.35;;
25391;SDS011;13329;48.402;11.718;2023-03-22T06:40:53;7.47;;;4.13;;
25391;SDS011;13329;48.402;11.718;2023-03-22T06:43:18;8.40;;;4.20;;
25391;SDS011;13329;48.402;11.718;2023-03-22T06:45:47;8.17;;;4.33;;
25391;SDS011;13329;48.402;11.718;2023-03-22T06:48:12;7.82;;;4.60;;
25391;SDS011;13329;48.402;11.718;2023-03-22T06:50:38;6.88;;;4.40;;
25391;SDS011;13329;48.402;11.718;2023-03-22T06:53:05;10.35;;;4.10;;
25391;SDS011;13329;48.402;11.718;2023-03-22T06:55:30;7.30;;;3.85;;
25391;SDS011;13329;48.402;11.718;2023-03-22T06:58:01;8.43;;;4.88;;
25391;SDS011;13329;48.402;11.718;2023-03-22T07:00:27;8.68;;;4.38;;
25391;SDS011;13329;48.402;11.718;2023-03-22T07:02:52;7.45;;;4.30;;
25391;SDS011;13329;48.402;11.718;2023-03-22T07:05:17;8.80;;;3.97;;
25391;SDS011;13329;48.402;11.718;2023-03-22T07:07:43;8.30;;;4.25;;
25391;SDS011;13329;48.402;11.718;2023-03-22T07:10:08;3.50;;;2.30;;
25391;SDS011;13329;48.402;11.718;2023-03-22T07:12:33;7.60;;;3.42;;
25391;SDS011;13329;48.402;11.718;2023-03-22T07:14:58;6.47;;;3.30;;
25391;SDS011;13329;48.402;11.718;2023-03-22T07:17:24;5.25;;;3.25;;
25391;SDS011;13329;48.402;11.718;2023-03-22T07:19:49;6.25;;;4.13;;
25391;SDS011;13329;48.402;11.718;2023-03-22T07:22:14;7.25;;;3.70;;
25391;SDS011;13329;48.402;11.718;2023-03-22T07:24:40;6.95;;;3.45;;
25391;SDS011;13329;48.402;11.718;2023-03-22T07:27:05;7.40;;;3.30;;
25391;SDS011;13329;48.402;11.718;2023-03-22T07:29:30;6.75;;;3.42;;
25391;SDS011;13329;48.402;11.718;2023-03-22T07:31:56;7.30;;;3.78;;
25391;SDS011;13329;48.402;11.718;2023-03-22T07:34:21;5.80;;;3.03;;
25391;SDS011;13329;48.402;11.718;2023-03-22T07:36:46;5.73;;;3.60;;
25391;SDS011;13329;48.402;11.718;2023-03-22T07:39:11;8.30;;;3.70;;
25391;SDS011;13329;48.402;11.718;2023-03-22T07:41:37;4.53;;;2.70;;
25391;SDS011;13329;48.402;11.718;2023-03-22T07:44:02;7.73;;;2.87;;
25391;SDS011;13329;48.402;11.718;2023-03-22T07:46:27;5.40;;;3.27;;
25391;SDS011;13329;48.402;11.718;2023-03-22T07:48:52;5.35;;;2.92;;
25391;SDS011;13329;48.402;11.718;2023-03-22T07:51:17;5.45;;;3.00;;
25391;SDS011;13329;48.402;11.718;2023-03-22T07:53:43;6.00;;;3.17;;
25391;SDS011;13329;48.402;11.718;2023-03-22T07:56:08;6.47;;;3.25;;
25391;SDS011;13329;48.402;11.718;2023-03-22T07:58:33;8.03;;;3.30;;
25391;SDS011;13329;48.402;11.718;2023-03-22T08:01:02;8.33;;;3.20;;
25391;SDS011;13329;48.402;11.718;2023-03-22T08:03:27;6.97;;;3.28;;
25391;SDS011;13329;48.402;11.718;2023-03-22T08:05:52;7.40;;;3.08;;
25391;SDS011;13329;48.402;11.718;2023-03-22T08:08:18;5.10;;;3.10;;
25391;SDS011;13329;48.402;11.718;2023-03-22T08:10:47;5.05;;;3.03;;
25391;SDS011;13329;48.402;11.718;2023-03-22T08:13:12;9.32;;;3.53;;
25391;SDS011;13329;48.402;11.718;2023-03-22T08:15:37;10.60;;;4.13;;
25391;SDS011;13329;48.402;11.718;2023-03-22T08:18:02;21.23;;;4.63;;
25391;SDS011;13329;48.402;11.718;2023-03-22T08:20:27;21.03;;;5.53;;
25391;SDS011;13329;48.402;11.718;2023-03-22T08:22:53;7.93;;;3.53;;
25391;SDS011;13329;48.402;11.718;2023-03-22T08:25:18;12.18;;;3.63;;
25391;SDS011;13329;48.402;11.718;2023-03-22T08:27:44;6.28;;;3.42;;
25391;SDS011;13329;48.402;11.718;2023-03-22T08:30:10;5.70;;;2.80;;
25391;SDS011;13329;48.402;11.718;2023-03-22T08:32:35;7.80;;;3.30;;
25391;SDS011;13329;48.402;11.718;2023-03-22T08:35:00;5.70;;;3.27;;
25391;SDS011;13329;48.402;11.718;2023-03-22T08:37:26;7.07;;;2.87;;
25391;SDS011;13329;48.402;11.718;2023-03-22T08:39:51;5.47;;;3.17;;
25391;SDS011;13329;48.402;11.718;2023-03-22T08:42:16;6.30;;;2.97;;
25391;SDS011;13329;48.402;11.718;2023-03-22T08:44:41;4.57;;;3.07;;
25391;SDS011;13329;48.402;11.718;2023-03-22T08:47:06;5.78;;;3.15;;
25391;SDS011;13329;48.402;11.718;2023-03-22T08:49:31;6.37;;;3.10;;
25391;SDS011;13329;48.402;11.718;2023-03-22T08:51:57;5.15;;;2.78;;
25391;SDS011;13329;48.402;11.718;2023-03-22T08:54:22;5.83;;;3.60;;
25391;SDS011;13329;48.402;11.718;2023-03-22T08:56:47;7.07;;;3.92;;
25391;SDS011;13329;48.402;11.718;2023-03-22T08:59:14;7.57;;;2.97;;
25391;SDS011;13329;48.402;11.718;2023-03-22T09:01:39;7.90;;;3.93;;
25391;SDS011;13329;48.402;11.718;2023-03-22T09:04:04;4.43;;;2.60;;
25391;SDS011;13329;48.402;11.718;2023-03-22T09:06:29;6.28;;;3.08;;
25391;SDS011;13329;48.402;11.718;2023-03-22T09:08:55;6.00;;;3.07;;
25391;SDS011;13329;48.402;11.718;2023-03-22T09:11:20;4.13;;;3.07;;
25391;SDS011;13329;48.402;11.718;2023-03-22T09:13:49;4.65;;;3.20;;
25391;SDS011;13329;48.402;11.718;2023-03-22T09:16:14;5.93;;;3.33;;
25391;SDS011;13329;48.402;11.718;2023-03-22T09:18:40;5.05;;;2.97;;
25391;SDS011;13329;48.402;11.718;2023-03-22T09:21:06;5.45;;;3.22;;
25391;SDS011;13329;48.402;11.718;2023-03-22T09:23:32;4.90;;;3.30;;
25391;SDS011;13329;48.402;11.718;2023-03-22T09:25:58;4.20;;;2.60;;
25391;SDS011;13329;48.402;11.718;2023-03-22T09:28:23;4.43;;;2.92;;
25391;SDS011;13329;48.402;11.718;2023-03-22T09:30:49;3.88;;;2.42;;
25391;SDS011;13329;48.402;11.718;2023-03-22T09:33:15;4.95;;;2.88;;
25391;SDS011;13329;48.402;11.718;2023-03-22T09:35:40;6.33;;;2.87;;
25391;SDS011;13329;48.402;11.718;2023-03-22T09:38:06;2.55;;;1.95;;
25391;SDS011;13329;48.402;11.718;2023-03-22T09:40:31;3.87;;;2.77;;
25391;SDS011;13329;48.402;11.718;2023-03-22T09:42:58;7.15;;;2.67;;
25391;SDS011;13329;48.402;11.718;2023-03-22T09:45:34;3.28;;;2.17;;
25391;SDS011;13329;48.402;11.718;2023-03-22T09:48:02;6.95;;;2.67;;
25391;SDS011;13329;48.402;11.718;2023-03-22T09:50:30;4.07;;;2.53;;
25391;SDS011;13329;48.402;11.718;2023-03-22T09:52:56;3.65;;;2.53;;
25391;SDS011;13329;48.402;11.718;2023-03-22T09:55:26;3.80;;;2.58;;
25391;SDS011;13329;48.402;11.718;2023-03-22T09:57:55;5.90;;;2.65;;
25391;SDS011;13329;48.402;11.718;2023-03-22T10:08:06;5.35;;;2.47;;
25391;SDS011;13329;48.402;11.718;2023-03-22T10:10:35;5.35;;;2.00;;
25391;SDS011;13329;48.402;11.718;2023-03-22T10:15:40;3.33;;;2.00;;
25391;SDS011;13329;48.402;11.718;2023-03-22T10:18:07;3.55;;;2.33;;
25391;SDS011;13329;48.402;11.718;2023-03-22T10:23:17;3.13;;;1.75;;
25391;SDS011;13329;48.402;11.718;2023-03-22T10:25:44;2.00;;;1.30;;
25391;SDS011;13329;48.402;11.718;2023-03-22T10:28:13;3.92;;;1.85;;
25391;SDS011;13329;48.402;11.718;2023-03-22T10:30:39;2.35;;;1.45;;
25391;SDS011;13329;48.402;11.718;2023-03-22T10:33:13;2.03;;;1.33;;
25391;SDS011;13329;48.402;11.718;2023-03-22T10:35:38;2.67;;;1.63;;
25391;SDS011;13329;48.402;11.718;2023-03-22T10:38:04;2.75;;;1.80;;
25391;SDS011;13329;48.402;11.718;2023-03-22T10:40:32;3.67;;;1.85;;
25391;SDS011;13329;48.402;11.718;2023-03-22T10:43:09;5.00;;;2.45;;
25391;SDS011;13329;48.402;11.718;2023-03-22T10:45:39;4.85;;;2.10;;
25391;SDS011;13329;48.402;11.718;2023-03-22T10:48:25;3.22;;;1.92;;
25391;SDS011;13329;48.402;11.718;2023-03-22T10:50:51;5.43;;;2.40;;
25391;SDS011;13329;48.402;11.718;2023-03-22T10:56:15;2.28;;;1.40;;
25391;SDS011;13329;48.402;11.718;2023-03-22T10:58:42;3.90;;;2.10;;
25391;SDS011;13329;48.402;11.718;2023-03-22T11:01:09;4.18;;;2.45;;
25391;SDS011;13329;48.402;11.718;2023-03-22T11:03:39;3.83;;;2.40;;
25391;SDS011;13329;48.402;11.718;2023-03-22T11:06:12;3.97;;;2.63;;
25391;SDS011;13329;48.402;11.718;2023-03-22T11:11:04;4.23;;;2.17;;
25391;SDS011;13329;48.402;11.718;2023-03-22T11:13:31;4.25;;;2.72;;
25391;SDS011;13329;48.402;11.718;2023-03-22T11:15:58;3.60;;;2.45;;
25391;SDS011;13329;48.402;11.718;2023-03-22T11:18:28;5.53;;;2.45;;
25391;SDS011;13329;48.402;11.718;2023-03-22T11:20:55;5.43;;;2.50;;
25391;SDS011;13329;48.402;11.718;2023-03-22T11:23:21;4.65;;;2.50;;
25391;SDS011;13329;48.402;11.718;2023-03-22T11:25:48;5.72;;;2.40;;
25391;SDS011;13329;48.402;11.718;2023-03-22T11:30:40;2.97;;;2.15;;
25391;SDS011;13329;48.402;11.718;2023-03-22T11:33:20;3.13;;;2.17;;
25391;SDS011;13329;48.402;11.718;2023-03-22T11:35:47;4.10;;;2.88;;
25391;SDS011;13329;48.402;11.718;2023-03-22T11:38:36;5.60;;;2.55;;
25391;SDS011;13329;48.402;11.718;2023-03-22T11:41:03;3.42;;;2.10;;
25391;SDS011;13329;48.402;11.718;2023-03-22T11:43:39;3.72;;;2.20;;
25391;SDS011;13329;48.402;11.718;2023-03-22T11:46:07;4.57;;;2.38;;
25391;SDS011;13329;48.402;11.718;2023-03-22T11:48:33;5.28;;;2.25;;
25391;SDS011;13329;48.402;11.718;2023-03-22T11:51:03;4.63;;;2.13;;
25391;SDS011;13329;48.402;11.718;2023-03-22T11:53:30;3.20;;;2.22;;
25391;SDS011;13329;48.402;11.718;2023-03-22T11:55:56;3.38;;;2.42;;
25391;SDS011;13329;48.402;11.718;2023-03-22T11:58:26;4.35;;;1.80;;
25391;SDS011;13329;48.402;11.718;2023-03-22T12:00:52;4.45;;;2.28;;
25391;SDS011;13329;48.402;11.718;2023-03-22T12:03:20;3.17;;;2.13;;
25391;SDS011;13329;48.402;11.718;2023-03-22T12:05:47;4.05;;;2.30;;
25391;SDS011;13329;48.402;11.718;2023-03-22T12:10:43;3.13;;;1.85;;
25391;SDS011;13329;48.402;11.718;2023-03-22T12:13:14;3.97;;;1.67;;
25391;SDS011;13329;48.402;11.718;2023-03-22T12:15:41;2.30;;;1.38;;
25391;SDS011;13329;48.402;11.718;2023-03-22T12:18:55;3.08;;;1.90;;
25391;SDS011;13329;48.402;11.718;2023-03-22T12:21:00;3.05;;;1.98;;
25391;SDS011;13329;48.402;11.718;2023-03-22T12:23:27;3.38;;;1.80;;
25391;SDS011;13329;48.402;11.718;2023-03-22T12:25:59;2.60;;;1.52;;
25391;SDS011;13329;48.402;11.718;2023-03-22T12:28:33;2.15;;;1.17;;
25391;SDS011;13329;48.402;11.718;2023-03-22T12:35:50;1.52;;;0.95;;
25391;SDS011;13329;48.402;11.718;2023-03-22T12:38:27;3.55;;;1.67;;
25391;SDS011;13329;48.402;11.718;2023-03-22T12:40:56;2.58;;;1.50;;
25391;SDS011;13329;48.402;11.718;2023-03-22T12:43:42;1.67;;;0.85;;
25391;SDS011;13329;48.402;11.718;2023-03-22T12:46:09;2.50;;;1.30;;
25391;SDS011;13329;48.402;11.718;2023-03-22T12:48:43;7.13;;;1.70;;
25391;SDS011;13329;48.402;11.718;2023-03-22T12:51:13;4.13;;;1.30;;
25391;SDS011;13329;48.402;11.718;2023-03-22T12:53:40;3.35;;;1.67;;
25391;SDS011;13329;48.402;11.718;2023-03-22T12:56:12;1.65;;;1.02;;
25391;SDS011;13329;48.402;11.718;2023-03-22T12:58:38;1.77;;;1.00;;
25391;SDS011;13329;48.402;11.718;2023-03-22T13:01:15;3.78;;;1.52;;
25391;SDS011;13329;48.402;11.718;2023-03-22T13:03:44;2.75;;;1.70;;
25391;SDS011;13329;48.402;11.718;2023-03-22T13:11:40;2.78;;;1.13;;
25391;SDS011;13329;48.402;11.718;2023-03-22T13:14:05;4.03;;;1.70;;
25391;SDS011;13329;48.402;11.718;2023-03-22T13:16:47;4.83;;;1.13;;
25391;SDS011;13329;48.402;11.718;2023-03-22T13:19:17;2.25;;;1.48;;
25391;SDS011;13329;48.402;11.718;2023-03-22T13:21:49;1.55;;;1.05;;
25391;SDS011;13329;48.402;11.718;2023-03-22T13:26:49;2.17;;;1.52;;
25391;SDS011;13329;48.402;11.718;2023-03-22T13:31:42;3.05;;;1.60;;
25391;SDS011;13329;48.402;11.718;2023-03-22T13:34:16;3.83;;;1.50;;
25391;SDS011;13329;48.402;11.718;2023-03-22T13:36:47;2.45;;;1.30;;
25391;SDS011;13329;48.402;11.718;2023-03-22T13:39:13;3.80;;;0.93;;
25391;SDS011;13329;48.402;11.718;2023-03-22T13:41:39;1.00;;;0.90;;
25391;SDS011;13329;48.402;11.718;2023-03-22T13:44:46;2.90;;;1.30;;
25391;SDS011;13329;48.402;11.718;2023-03-22T13:46:53;1.65;;;0.98;;
25391;SDS011;13329;48.402;11.718;2023-03-22T13:51:56;1.45;;;1.00;;
25391;SDS011;13329;48.402;11.718;2023-03-22T13:54:23;1.30;;;0.65;;
25391;SDS011;13329;48.402;11.718;2023-03-22T13:59:27;2.35;;;0.80;;
25391;SDS011;13329;48.402;11.718;2023-03-22T14:04:39;1.75;;;0.93;;
25391;SDS011;13329;48.402;11.718;2023-03-22T14:09:32;1.10;;;0.80;;
25391;SDS011;13329;48.402;11.718;2023-03-22T14:12:21;4.57;;;1.17;;
25391;SDS011;13329;48.402;11.718;2023-03-22T14:14:46;2.20;;;1.00;;
25391;SDS011;13329;48.402;11.718;2023-03-22T14:17:17;2.17;;;0.90;;
25391;SDS011;13329;48.402;11.718;2023-03-22T14:19:44;1.88;;;1.25;;
25391;SDS011;13329;48.402;11.718;2023-03-22T14:22:12;1.52;;;1.10;;
25391;SDS011;13329;48.402;11.718;2023-03-22T14:24:38;1.40;;;0.93;;
25391;SDS011;13329;48.402;11.718;2023-03-22T14:27:04;2.40;;;1.10;;
25391;SDS011;13329;48.402;11.718;2023-03-22T14:29:40;2.60;;;1.33;;
25391;SDS011;13329;48.402;11.718;2023-03-22T14:32:12;2.38;;;1.05;;
25391;SDS011;13329;48.402;11.718;2023-03-22T14:34:38;1.55;;;1.02;;
25391;SDS011;13329;48.402;11.718;2023-03-22T14:37:05;1.45;;;0.85;;
25391;SDS011;13329;48.402;11.718;2023-03-22T14:39:37;2.83;;;1.33;;
25391;SDS011;13329;48.402;11.718;2023-03-22T14:42:16;1.55;;;0.90;;
25391;SDS011;13329;48.402;11.718;2023-03-22T14:44:44;2.50;;;0.90;;
25391;SDS011;13329;48.402;11.718;2023-03-22T14:47:14;1.20;;;0.90;;
25391;SDS011;13329;48.402;11.718;2023-03-22T14:49:40;2.97;;;0.93;;
25391;SDS011;13329;48.402;11.718;2023-03-22T14:52:10;1.92;;;1.23;;
25391;SDS011;13329;48.402;11.718;2023-03-22T14:54:37;2.88;;;1.10;;
25391;SDS011;13329;48.402;11.718;2023-03-22T14:57:03;1.95;;;1.40;;
25391;SDS011;13329;48.402;11.718;2023-03-22T14:59:28;2.88;;;1.40;;
25391;SDS011;13329;48.402;11.718;2023-03-22T15:01:59;2.37;;;1.17;;
25391;SDS011;13329;48.402;11.718;2023-03-22T15:04:26;3.13;;;1.10;;
25391;SDS011;13329;48.402;11.718;2023-03-22T15:06:55;2.00;;;0.97;;
25391;SDS011;13329;48.402;11.718;2023-03-22T15:09:21;1.75;;;0.90;;
25391;SDS011;13329;48.402;11.718;2023-03-22T15:11:47;2.23;;;1.03;;
25391;SDS011;13329;48.402;11.718;2023-03-22T15:14:13;1.70;;;0.75;;
25391;SDS011;13329;48.402;11.718;2023-03-22T15:16:39;1.67;;;0.77;;
25391;SDS011;13329;48.402;11.718;2023-03-22T15:19:05;1.70;;;0.95;;
25391;SDS011;13329;48.402;11.718;2023-03-22T15:21:33;3.70;;;0.85;;
25391;SDS011;13329;48.402;11.718;2023-03-22T15:24:11;1.38;;;0.80;;
25391;SDS011;13329;48.402;11.718;2023-03-22T15:26:37;0.80;;;0.52;;
25391;SDS011;13329;48.402;11.718;2023-03-22T15:29:06;2.70;;;0.80;;
25391;SDS011;13329;48.402;11.718;2023-03-22T15:31:33;1.23;;;0.63;;
25391;SDS011;13329;48.402;11.718;2023-03-22T15:34:04;0.80;;;0.60;;
25391;SDS011;13329;48.402;11.718;2023-03-22T15:36:30;2.28;;;0.75;;
25391;SDS011;13329;48.402;11.718;2023-03-22T15:38:58;1.05;;;0.60;;
25391;SDS011;13329;48.402;11.718;2023-03-22T15:41:33;0.73;;;0.65;;
25391;SDS011;13329;48.402;11.718;2023-03-22T15:46:54;1.20;;;0.70;;
25391;SDS011;13329;48.402;11.718;2023-03-22T15:51:51;0.85;;;0.70;;
25391;SDS011;13329;48.402;11.718;2023-03-22T15:54:20;1.27;;;0.70;;
25391;SDS011;13329;48.402;11.718;2023-03-22T15:56:47;3.45;;;0.57;;
25391;SDS011;13329;48.402;11.718;2023-03-22T15:59:23;2.60;;;1.00;;
25391;SDS011;13329;48.402;11.718;2023-03-22T16:01:49;2.97;;;0.75;;